Grafton, Virginia
Current Conditions -  °F | °C
As of 6:54 PM on Monday 22 Dec 2014 (Local Time) from KPHF Reporting Station
Light Rain Light Rain  
Wind Chill:   Ceiling: 400
Heat Index:   Visibility: 1.5mi
Dew Point:   Wind: 9mph
Humidity: 89%   Direction: 360°N
Pressure: 30.06"   Gusts: NA
Location:  37.1781°N, 76.4669°W
Report Text: KPHF 222354Z 36008KT 1 1/2SM -RA BR OVC004 08/06 A3006 RMK AO2 SLP180 P0000 60000 T00780061 10083 20078 53002
Loading
Personal Weather Stations






























Interactive Weather Map New forecast layout! Learn more

10-Day Weather Forecast

Advertisements
Track Severe Weather on mobile